sensor_id;sensor_type;location;lat;lon;timestamp;temperature;humidity
71994;DHT22;59861;50.268;8.648;2023-03-30T00:00:02;16.10;54.60
71994;DHT22;59861;50.268;8.648;2023-03-30T00:02:31;16.10;54.10
71994;DHT22;59861;50.268;8.648;2023-03-30T00:04:59;16.10;54.60
71994;DHT22;59861;50.268;8.648;2023-03-30T00:07:27;16.10;54.60
71994;DHT22;59861;50.268;8.648;2023-03-30T00:09:55;16.10;54.60
71994;DHT22;59861;50.268;8.648;2023-03-30T00:12:22;16.10;54.50
71994;DHT22;59861;50.268;8.648;2023-03-30T00:14:49;16.10;54.50
71994;DHT22;59861;50.268;8.648;2023-03-30T00:17:16;16.10;54.50
71994;DHT22;59861;50.268;8.648;2023-03-30T00:19:43;16.10;54.60
71994;DHT22;59861;50.268;8.648;2023-03-30T00:22:10;16.10;54.60
71994;DHT22;59861;50.268;8.648;2023-03-30T00:24:37;16.10;54.60
71994;DHT22;59861;50.268;8.648;2023-03-30T00:27:04;16.10;54.60
71994;DHT22;59861;50.268;8.648;2023-03-30T00:29:31;16.10;54.60
71994;DHT22;59861;50.268;8.648;2023-03-30T00:31:58;16.10;54.50
71994;DHT22;59861;50.268;8.648;2023-03-30T00:34:25;16.10;54.50
71994;DHT22;59861;50.268;8.648;2023-03-30T00:36:52;16.10;54.50
71994;DHT22;59861;50.268;8.648;2023-03-30T00:39:18;16.10;54.60
71994;DHT22;59861;50.268;8.648;2023-03-30T00:41:47;16.00;54.40
71994;DHT22;59861;50.268;8.648;2023-03-30T00:46:59;16.00;54.50
71994;DHT22;59861;50.268;8.648;2023-03-30T00:49:26;16.00;54.60
71994;DHT22;59861;50.268;8.648;2023-03-30T00:51:54;16.00;54.50
71994;DHT22;59861;50.268;8.648;2023-03-30T00:54:21;16.00;54.50
71994;DHT22;59861;50.268;8.648;2023-03-30T00:56:47;16.00;54.50
71994;DHT22;59861;50.268;8.648;2023-03-30T00:59:14;16.00;54.50
71994;DHT22;59861;50.268;8.648;2023-03-30T01:01:41;16.00;55.30
71994;DHT22;59861;50.268;8.648;2023-03-30T01:04:10;16.00;54.50
71994;DHT22;59861;50.268;8.648;2023-03-30T01:06:37;16.00;54.60
71994;DHT22;59861;50.268;8.648;2023-03-30T01:09:05;16.00;54.60
71994;DHT22;59861;50.268;8.648;2023-03-30T01:11:33;16.00;54.50
71994;DHT22;59861;50.268;8.648;2023-03-30T01:14:01;15.90;54.50
71994;DHT22;59861;50.268;8.648;2023-03-30T01:19:00;16.00;54.50
71994;DHT22;59861;50.268;8.648;2023-03-30T01:29:32;15.90;54.30
71994;DHT22;59861;50.268;8.648;2023-03-30T01:32:01;16.00;54.30
71994;DHT22;59861;50.268;8.648;2023-03-30T01:34:32;16.00;54.30
71994;DHT22;59861;50.268;8.648;2023-03-30T01:37:07;16.00;54.30
71994;DHT22;59861;50.268;8.648;2023-03-30T01:39:37;16.00;54.40
71994;DHT22;59861;50.268;8.648;2023-03-30T01:44:40;16.00;54.30
71994;DHT22;59861;50.268;8.648;2023-03-30T01:47:08;16.00;54.40
71994;DHT22;59861;50.268;8.648;2023-03-30T01:49:39;16.00;54.30
71994;DHT22;59861;50.268;8.648;2023-03-30T01:52:16;16.00;54.30
71994;DHT22;59861;50.268;8.648;2023-03-30T01:54:45;16.00;54.30
71994;DHT22;59861;50.268;8.648;2023-03-30T01:57:12;16.00;54.30
71994;DHT22;59861;50.268;8.648;2023-03-30T01:59:43;16.00;54.30
71994;DHT22;59861;50.268;8.648;2023-03-30T02:02:11;16.00;54.30
71994;DHT22;59861;50.268;8.648;2023-03-30T02:04:40;16.00;54.40
71994;DHT22;59861;50.268;8.648;2023-03-30T02:07:16;16.00;54.30
71994;DHT22;59861;50.268;8.648;2023-03-30T02:09:44;16.00;54.40
71994;DHT22;59861;50.268;8.648;2023-03-30T02:12:12;16.00;54.30
71994;DHT22;59861;50.268;8.648;2023-03-30T02:14:39;16.00;54.30
71994;DHT22;59861;50.268;8.648;2023-03-30T02:19:36;16.00;54.30
71994;DHT22;59861;50.268;8.648;2023-03-30T02:22:03;16.00;54.30
71994;DHT22;59861;50.268;8.648;2023-03-30T02:24:31;16.00;54.30
71994;DHT22;59861;50.268;8.648;2023-03-30T02:26:58;16.00;54.30
71994;DHT22;59861;50.268;8.648;2023-03-30T02:29:27;15.90;54.30
71994;DHT22;59861;50.268;8.648;2023-03-30T02:31:55;16.00;54.40
71994;DHT22;59861;50.268;8.648;2023-03-30T02:36:55;15.90;54.30
71994;DHT22;59861;50.268;8.648;2023-03-30T02:42:03;15.90;54.30
71994;DHT22;59861;50.268;8.648;2023-03-30T02:44:28;15.90;54.30
71994;DHT22;59861;50.268;8.648;2023-03-30T02:47:11;15.90;54.30
71994;DHT22;59861;50.268;8.648;2023-03-30T02:49:54;15.90;54.30
71994;DHT22;59861;50.268;8.648;2023-03-30T02:55:03;15.90;54.30
71994;DHT22;59861;50.268;8.648;2023-03-30T02:57:34;15.90;54.30
71994;DHT22;59861;50.268;8.648;2023-03-30T03:00:04;15.90;54.30
71994;DHT22;59861;50.268;8.648;2023-03-30T03:02:36;15.90;54.30
71994;DHT22;59861;50.268;8.648;2023-03-30T03:05:02;15.90;54.30
71994;DHT22;59861;50.268;8.648;2023-03-30T03:07:29;15.90;54.30
71994;DHT22;59861;50.268;8.648;2023-03-30T03:09:59;15.90;54.30
71994;DHT22;59861;50.268;8.648;2023-03-30T03:12:26;15.90;54.20
71994;DHT22;59861;50.268;8.648;2023-03-30T03:14:56;15.90;54.30
71994;DHT22;59861;50.268;8.648;2023-03-30T03:17:25;15.90;54.50
71994;DHT22;59861;50.268;8.648;2023-03-30T03:19:53;15.90;54.30
71994;DHT22;59861;50.268;8.648;2023-03-30T03:22:20;15.80;54.20
71994;DHT22;59861;50.268;8.648;2023-03-30T03:24:47;15.90;54.30
71994;DHT22;59861;50.268;8.648;2023-03-30T03:27:14;15.80;54.30
71994;DHT22;59861;50.268;8.648;2023-03-30T03:29:41;15.90;54.30
71994;DHT22;59861;50.268;8.648;2023-03-30T03:32:08;15.80;54.30
71994;DHT22;59861;50.268;8.648;2023-03-30T03:34:34;15.90;54.30
71994;DHT22;59861;50.268;8.648;2023-03-30T03:37:02;15.80;54.30
71994;DHT22;59861;50.268;8.648;2023-03-30T03:39:28;15.80;54.30
71994;DHT22;59861;50.268;8.648;2023-03-30T03:41:56;15.90;54.80
71994;DHT22;59861;50.268;8.648;2023-03-30T03:44:23;15.90;54.30
71994;DHT22;59861;50.268;8.648;2023-03-30T03:46:49;15.80;54.20
71994;DHT22;59861;50.268;8.648;2023-03-30T03:49:16;15.90;54.30
71994;DHT22;59861;50.268;8.648;2023-03-30T03:51:43;15.80;54.30
71994;DHT22;59861;50.268;8.648;2023-03-30T03:54:10;15.90;54.30
71994;DHT22;59861;50.268;8.648;2023-03-30T03:56:36;15.90;54.30
71994;DHT22;59861;50.268;8.648;2023-03-30T03:59:03;15.80;54.30
71994;DHT22;59861;50.268;8.648;2023-03-30T04:01:30;15.90;54.30
71994;DHT22;59861;50.268;8.648;2023-03-30T04:03:57;15.80;54.30
71994;DHT22;59861;50.268;8.648;2023-03-30T04:06:24;15.80;54.50
71994;DHT22;59861;50.268;8.648;2023-03-30T04:08:52;15.80;54.60
71994;DHT22;59861;50.268;8.648;2023-03-30T04:11:18;15.80;54.70
71994;DHT22;59861;50.268;8.648;2023-03-30T04:13:46;15.80;54.80
71994;DHT22;59861;50.268;8.648;2023-03-30T04:16:13;15.80;54.90
71994;DHT22;59861;50.268;8.648;2023-03-30T04:18:40;15.80;54.80
71994;DHT22;59861;50.268;8.648;2023-03-30T04:21:08;15.90;54.90
71994;DHT22;59861;50.268;8.648;2023-03-30T04:23:37;15.80;54.80
71994;DHT22;59861;50.268;8.648;2023-03-30T04:26:05;15.90;54.80
71994;DHT22;59861;50.268;8.648;2023-03-30T04:28:33;15.90;54.80
71994;DHT22;59861;50.268;8.648;2023-03-30T04:31:01;15.90;54.80
71994;DHT22;59861;50.268;8.648;2023-03-30T04:33:28;15.90;54.70
71994;DHT22;59861;50.268;8.648;2023-03-30T04:35:55;16.00;54.80
71994;DHT22;59861;50.268;8.648;2023-03-30T04:38:22;15.90;54.70
71994;DHT22;59861;50.268;8.648;2023-03-30T04:40:49;16.00;54.70
71994;DHT22;59861;50.268;8.648;2023-03-30T04:43:16;16.00;54.70
71994;DHT22;59861;50.268;8.648;2023-03-30T04:45:47;16.00;54.80
71994;DHT22;59861;50.268;8.648;2023-03-30T04:48:15;16.00;54.80
71994;DHT22;59861;50.268;8.648;2023-03-30T04:50:43;16.00;54.70
71994;DHT22;59861;50.268;8.648;2023-03-30T04:53:10;16.10;54.80
71994;DHT22;59861;50.268;8.648;2023-03-30T04:55:37;16.10;54.80
71994;DHT22;59861;50.268;8.648;2023-03-30T04:58:04;16.00;54.90
71994;DHT22;59861;50.268;8.648;2023-03-30T05:00:31;16.10;55.00
71994;DHT22;59861;50.268;8.648;2023-03-30T05:02:59;16.00;54.90
71994;DHT22;59861;50.268;8.648;2023-03-30T05:05:26;16.10;55.00
71994;DHT22;59861;50.268;8.648;2023-03-30T05:07:52;16.00;55.00
71994;DHT22;59861;50.268;8.648;2023-03-30T05:10:19;16.10;55.00
71994;DHT22;59861;50.268;8.648;2023-03-30T05:12:46;16.10;55.10
71994;DHT22;59861;50.268;8.648;2023-03-30T05:15:13;16.10;55.10
71994;DHT22;59861;50.268;8.648;2023-03-30T05:17:40;16.10;55.10
71994;DHT22;59861;50.268;8.648;2023-03-30T05:20:08;16.10;55.10
71994;DHT22;59861;50.268;8.648;2023-03-30T05:22:35;16.10;55.00
71994;DHT22;59861;50.268;8.648;2023-03-30T05:25:02;16.20;55.10
71994;DHT22;59861;50.268;8.648;2023-03-30T05:27:29;16.20;55.00
71994;DHT22;59861;50.268;8.648;2023-03-30T05:29:56;16.20;55.00
71994;DHT22;59861;50.268;8.648;2023-03-30T05:32:23;16.20;54.90
71994;DHT22;59861;50.268;8.648;2023-03-30T05:34:50;16.20;54.90
71994;DHT22;59861;50.268;8.648;2023-03-30T05:37:17;16.20;54.90
71994;DHT22;59861;50.268;8.648;2023-03-30T05:39:43;16.20;54.90
71994;DHT22;59861;50.268;8.648;2023-03-30T05:42:10;16.20;54.80
71994;DHT22;59861;50.268;8.648;2023-03-30T05:44:37;16.20;54.80
71994;DHT22;59861;50.268;8.648;2023-03-30T05:47:04;16.20;54.80
71994;DHT22;59861;50.268;8.648;2023-03-30T05:49:31;16.30;54.80
71994;DHT22;59861;50.268;8.648;2023-03-30T05:51:58;16.20;54.70
71994;DHT22;59861;50.268;8.648;2023-03-30T05:54:24;16.20;54.80
71994;DHT22;59861;50.268;8.648;2023-03-30T05:56:52;16.20;54.80
71994;DHT22;59861;50.268;8.648;2023-03-30T05:59:19;16.30;54.80
71994;DHT22;59861;50.268;8.648;2023-03-30T06:01:47;16.20;54.70
71994;DHT22;59861;50.268;8.648;2023-03-30T06:04:14;16.20;54.70
71994;DHT22;59861;50.268;8.648;2023-03-30T06:06:41;16.30;54.70
71994;DHT22;59861;50.268;8.648;2023-03-30T06:09:08;16.30;54.80
71994;DHT22;59861;50.268;8.648;2023-03-30T06:11:35;16.20;54.60
71994;DHT22;59861;50.268;8.648;2023-03-30T06:14:01;16.30;54.60
71994;DHT22;59861;50.268;8.648;2023-03-30T06:16:28;16.30;54.60
71994;DHT22;59861;50.268;8.648;2023-03-30T06:18:56;16.30;54.60
71994;DHT22;59861;50.268;8.648;2023-03-30T06:21:23;16.30;54.60
71994;DHT22;59861;50.268;8.648;2023-03-30T06:23:50;16.30;54.70
71994;DHT22;59861;50.268;8.648;2023-03-30T06:26:17;16.20;54.60
71994;DHT22;59861;50.268;8.648;2023-03-30T06:28:44;16.20;54.60
71994;DHT22;59861;50.268;8.648;2023-03-30T06:31:11;16.20;54.60
71994;DHT22;59861;50.268;8.648;2023-03-30T06:33:38;16.20;54.50
71994;DHT22;59861;50.268;8.648;2023-03-30T06:36:07;16.30;54.50
71994;DHT22;59861;50.268;8.648;2023-03-30T06:38:33;16.20;54.40
71994;DHT22;59861;50.268;8.648;2023-03-30T06:41:02;16.20;54.50
71994;DHT22;59861;50.268;8.648;2023-03-30T06:43:29;16.30;54.50
71994;DHT22;59861;50.268;8.648;2023-03-30T06:45:56;16.20;54.50
71994;DHT22;59861;50.268;8.648;2023-03-30T06:48:23;16.20;54.50
71994;DHT22;59861;50.268;8.648;2023-03-30T06:50:50;16.20;54.50
71994;DHT22;59861;50.268;8.648;2023-03-30T06:53:17;16.20;54.50
71994;DHT22;59861;50.268;8.648;2023-03-30T06:55:44;16.20;54.60
71994;DHT22;59861;50.268;8.648;2023-03-30T06:58:13;16.20;54.50
71994;DHT22;59861;50.268;8.648;2023-03-30T07:00:40;16.10;54.60
71994;DHT22;59861;50.268;8.648;2023-03-30T07:03:06;16.20;54.70
71994;DHT22;59861;50.268;8.648;2023-03-30T07:05:33;16.10;54.60
71994;DHT22;59861;50.268;8.648;2023-03-30T07:08:00;16.20;54.60
71994;DHT22;59861;50.268;8.648;2023-03-30T07:10:27;16.20;54.60
71994;DHT22;59861;50.268;8.648;2023-03-30T07:12:54;16.20;54.50
71994;DHT22;59861;50.268;8.648;2023-03-30T07:15:21;16.10;54.60
71994;DHT22;59861;50.268;8.648;2023-03-30T07:17:49;16.10;54.60
71994;DHT22;59861;50.268;8.648;2023-03-30T07:20:16;16.10;54.60
71994;DHT22;59861;50.268;8.648;2023-03-30T07:22:43;16.10;54.60
71994;DHT22;59861;50.268;8.648;2023-03-30T07:25:10;16.10;54.60
71994;DHT22;59861;50.268;8.648;2023-03-30T07:27:37;16.10;54.70
71994;DHT22;59861;50.268;8.648;2023-03-30T07:30:04;16.10;54.60
71994;DHT22;59861;50.268;8.648;2023-03-30T07:35:18;16.10;54.60
71994;DHT22;59861;50.268;8.648;2023-03-30T07:37:45;16.10;54.70
71994;DHT22;59861;50.268;8.648;2023-03-30T07:40:12;16.10;54.60
71994;DHT22;59861;50.268;8.648;2023-03-30T07:42:39;16.10;54.70
71994;DHT22;59861;50.268;8.648;2023-03-30T07:45:06;16.10;54.60
71994;DHT22;59861;50.268;8.648;2023-03-30T07:47:33;16.00;54.50
71994;DHT22;59861;50.268;8.648;2023-03-30T07:50:01;16.00;54.60
71994;DHT22;59861;50.268;8.648;2023-03-30T07:52:27;16.00;54.70
71994;DHT22;59861;50.268;8.648;2023-03-30T07:54:54;16.00;54.50
71994;DHT22;59861;50.268;8.648;2023-03-30T07:57:21;16.00;54.50
71994;DHT22;59861;50.268;8.648;2023-03-30T07:59:48;16.00;54.50
71994;DHT22;59861;50.268;8.648;2023-03-30T08:02:15;16.00;55.10
71994;DHT22;59861;50.268;8.648;2023-03-30T08:04:42;16.00;54.40
71994;DHT22;59861;50.268;8.648;2023-03-30T08:07:09;16.10;54.40
71994;DHT22;59861;50.268;8.648;2023-03-30T08:09:36;16.00;55.10
71994;DHT22;59861;50.268;8.648;2023-03-30T08:12:03;16.00;54.60
71994;DHT22;59861;50.268;8.648;2023-03-30T08:14:30;16.00;54.60
71994;DHT22;59861;50.268;8.648;2023-03-30T08:16:57;16.00;54.90
71994;DHT22;59861;50.268;8.648;2023-03-30T08:19:24;16.00;54.70
71994;DHT22;59861;50.268;8.648;2023-03-30T08:21:52;16.00;54.70
71994;DHT22;59861;50.268;8.648;2023-03-30T08:24:21;16.00;54.70
71994;DHT22;59861;50.268;8.648;2023-03-30T08:26:48;16.00;54.50
71994;DHT22;59861;50.268;8.648;2023-03-30T08:29:14;16.00;54.60
71994;DHT22;59861;50.268;8.648;2023-03-30T08:31:41;16.00;54.50
71994;DHT22;59861;50.268;8.648;2023-03-30T08:34:08;15.90;54.60
71994;DHT22;59861;50.268;8.648;2023-03-30T08:36:36;15.90;54.60
71994;DHT22;59861;50.268;8.648;2023-03-30T08:39:03;16.00;54.70
71994;DHT22;59861;50.268;8.648;2023-03-30T08:44:18;16.00;54.70
71994;DHT22;59861;50.268;8.648;2023-03-30T08:46:44;15.90;54.70
71994;DHT22;59861;50.268;8.648;2023-03-30T08:49:13;16.00;54.70
71994;DHT22;59861;50.268;8.648;2023-03-30T08:51:41;16.00;54.80
71994;DHT22;59861;50.268;8.648;2023-03-30T08:54:08;16.00;54.70
71994;DHT22;59861;50.268;8.648;2023-03-30T08:56:38;16.00;55.10
71994;DHT22;59861;50.268;8.648;2023-03-30T08:59:17;16.00;54.70
71994;DHT22;59861;50.268;8.648;2023-03-30T09:01:46;16.00;55.20
71994;DHT22;59861;50.268;8.648;2023-03-30T09:04:22;16.00;54.70
71994;DHT22;59861;50.268;8.648;2023-03-30T09:07:22;16.00;54.70
71994;DHT22;59861;50.268;8.648;2023-03-30T09:09:23;16.00;54.70
71994;DHT22;59861;50.268;8.648;2023-03-30T09:12:10;16.00;54.70
71994;DHT22;59861;50.268;8.648;2023-03-30T09:14:34;16.00;54.80
71994;DHT22;59861;50.268;8.648;2023-03-30T09:17:04;16.00;54.80
71994;DHT22;59861;50.268;8.648;2023-03-30T09:19:34;16.00;54.80
71994;DHT22;59861;50.268;8.648;2023-03-30T09:22:01;16.00;54.80
71994;DHT22;59861;50.268;8.648;2023-03-30T09:24:29;16.00;54.80
71994;DHT22;59861;50.268;8.648;2023-03-30T09:29:39;16.00;54.90
71994;DHT22;59861;50.268;8.648;2023-03-30T09:32:24;16.00;54.90
71994;DHT22;59861;50.268;8.648;2023-03-30T09:34:58;16.00;54.80
71994;DHT22;59861;50.268;8.648;2023-03-30T09:37:25;16.00;54.80
71994;DHT22;59861;50.268;8.648;2023-03-30T09:39:53;16.00;54.90
71994;DHT22;59861;50.268;8.648;2023-03-30T09:45:21;16.00;54.90
71994;DHT22;59861;50.268;8.648;2023-03-30T09:47:48;16.00;54.90
71994;DHT22;59861;50.268;8.648;2023-03-30T09:50:16;16.00;55.00
71994;DHT22;59861;50.268;8.648;2023-03-30T09:52:58;16.00;54.90
71994;DHT22;59861;50.268;8.648;2023-03-30T09:55:25;16.00;55.00
71994;DHT22;59861;50.268;8.648;2023-03-30T09:57:52;16.00;54.90
71994;DHT22;59861;50.268;8.648;2023-03-30T10:00:30;15.90;54.90
71994;DHT22;59861;50.268;8.648;2023-03-30T10:02:58;15.90;55.00
71994;DHT22;59861;50.268;8.648;2023-03-30T10:05:25;16.00;54.90
71994;DHT22;59861;50.268;8.648;2023-03-30T10:07:57;16.00;54.90
71994;DHT22;59861;50.268;8.648;2023-03-30T10:12:53;15.90;54.90
71994;DHT22;59861;50.268;8.648;2023-03-30T10:15:21;16.00;55.00
71994;DHT22;59861;50.268;8.648;2023-03-30T10:17:49;16.00;55.00
71994;DHT22;59861;50.268;8.648;2023-03-30T10:20:27;15.90;55.00
71994;DHT22;59861;50.268;8.648;2023-03-30T10:22:58;15.90;55.10
71994;DHT22;59861;50.268;8.648;2023-03-30T10:25:28;15.90;54.90
71994;DHT22;59861;50.268;8.648;2023-03-30T10:27:54;15.90;54.90
71994;DHT22;59861;50.268;8.648;2023-03-30T10:30:22;16.00;55.00
71994;DHT22;59861;50.268;8.648;2023-03-30T10:32:49;16.00;55.00
71994;DHT22;59861;50.268;8.648;2023-03-30T10:35:18;16.00;54.90
71994;DHT22;59861;50.268;8.648;2023-03-30T10:37:45;15.90;54.90
71994;DHT22;59861;50.268;8.648;2023-03-30T10:40:17;15.90;55.00
71994;DHT22;59861;50.268;8.648;2023-03-30T10:42:44;16.00;55.00
71994;DHT22;59861;50.268;8.648;2023-03-30T10:45:15;15.90;54.90
71994;DHT22;59861;50.268;8.648;2023-03-30T10:50:31;15.90;54.90
71994;DHT22;59861;50.268;8.648;2023-03-30T10:55:44;15.90;55.00
71994;DHT22;59861;50.268;8.648;2023-03-30T10:58:19;15.90;55.00
71994;DHT22;59861;50.268;8.648;2023-03-30T11:00:48;15.90;55.00
71994;DHT22;59861;50.268;8.648;2023-03-30T11:03:16;15.90;55.00
71994;DHT22;59861;50.268;8.648;2023-03-30T11:05:50;15.90;55.10
71994;DHT22;59861;50.268;8.648;2023-03-30T11:08:16;15.90;55.10
71994;DHT22;59861;50.268;8.648;2023-03-30T11:10:48;15.90;55.00
71994;DHT22;59861;50.268;8.648;2023-03-30T11:13:20;15.90;55.90
71994;DHT22;59861;50.268;8.648;2023-03-30T11:15:57;15.90;54.50
71994;DHT22;59861;50.268;8.648;2023-03-30T11:19:11;15.90;55.10
71994;DHT22;59861;50.268;8.648;2023-03-30T11:20:55;15.90;55.20
71994;DHT22;59861;50.268;8.648;2023-03-30T11:25:57;15.90;55.20
71994;DHT22;59861;50.268;8.648;2023-03-30T11:30:58;15.80;55.20
71994;DHT22;59861;50.268;8.648;2023-03-30T11:33:34;15.90;55.30
71994;DHT22;59861;50.268;8.648;2023-03-30T11:36:04;15.90;55.20
71994;DHT22;59861;50.268;8.648;2023-03-30T11:41:51;15.90;55.30
71994;DHT22;59861;50.268;8.648;2023-03-30T11:43:32;15.90;55.30
71994;DHT22;59861;50.268;8.648;2023-03-30T11:46:19;15.90;55.30
71994;DHT22;59861;50.268;8.648;2023-03-30T11:48:52;15.90;55.30
71994;DHT22;59861;50.268;8.648;2023-03-30T12:01:54;15.90;55.60
71994;DHT22;59861;50.268;8.648;2023-03-30T12:04:33;15.90;55.80
71994;DHT22;59861;50.268;8.648;2023-03-30T12:07:01;15.90;55.60
71994;DHT22;59861;50.268;8.648;2023-03-30T12:09:31;15.90;55.60
71994;DHT22;59861;50.268;8.648;2023-03-30T12:12:21;15.90;55.70
71994;DHT22;59861;50.268;8.648;2023-03-30T12:17:42;15.80;55.70
71994;DHT22;59861;50.268;8.648;2023-03-30T12:20:11;15.90;55.80
71994;DHT22;59861;50.268;8.648;2023-03-30T12:25:17;15.90;55.80
71994;DHT22;59861;50.268;8.648;2023-03-30T12:30:23;15.90;56.50
71994;DHT22;59861;50.268;8.648;2023-03-30T12:35:54;15.90;55.80
71994;DHT22;59861;50.268;8.648;2023-03-30T12:38:00;15.80;55.60
71994;DHT22;59861;50.268;8.648;2023-03-30T12:40:30;15.80;55.80
71994;DHT22;59861;50.268;8.648;2023-03-30T12:43:00;15.80;55.80
71994;DHT22;59861;50.268;8.648;2023-03-30T12:45:46;15.90;55.80
71994;DHT22;59861;50.268;8.648;2023-03-30T12:48:13;15.90;55.80
71994;DHT22;59861;50.268;8.648;2023-03-30T12:50:54;15.80;55.70
71994;DHT22;59861;50.268;8.648;2023-03-30T12:56:02;15.80;55.70
71994;DHT22;59861;50.268;8.648;2023-03-30T12:58:42;15.80;55.80
71994;DHT22;59861;50.268;8.648;2023-03-30T13:01:09;15.80;55.70
71994;DHT22;59861;50.268;8.648;2023-03-30T13:03:37;15.90;55.80
71994;DHT22;59861;50.268;8.648;2023-03-30T13:08:52;15.80;55.80
71994;DHT22;59861;50.268;8.648;2023-03-30T13:11:18;15.80;55.70
71994;DHT22;59861;50.268;8.648;2023-03-30T13:13:47;15.80;55.60
71994;DHT22;59861;50.268;8.648;2023-03-30T13:16:29;15.90;55.70
71994;DHT22;59861;50.268;8.648;2023-03-30T13:18:52;15.80;55.70
71994;DHT22;59861;50.268;8.648;2023-03-30T13:21:20;15.80;55.80
71994;DHT22;59861;50.268;8.648;2023-03-30T13:23:59;15.80;55.80
71994;DHT22;59861;50.268;8.648;2023-03-30T13:26:25;15.80;55.70
71994;DHT22;59861;50.268;8.648;2023-03-30T13:31:33;15.80;55.80
71994;DHT22;59861;50.268;8.648;2023-03-30T13:34:09;15.80;55.80
71994;DHT22;59861;50.268;8.648;2023-03-30T13:36:35;15.80;55.80
71994;DHT22;59861;50.268;8.648;2023-03-30T13:39:03;15.80;56.50
71994;DHT22;59861;50.268;8.648;2023-03-30T13:41:32;15.80;55.70
71994;DHT22;59861;50.268;8.648;2023-03-30T13:51:50;15.80;55.70
71994;DHT22;59861;50.268;8.648;2023-03-30T13:54:20;15.80;55.60
71994;DHT22;59861;50.268;8.648;2023-03-30T13:56:47;15.80;55.60
71994;DHT22;59861;50.268;8.648;2023-03-30T13:59:16;15.80;55.60
71994;DHT22;59861;50.268;8.648;2023-03-30T14:01:48;15.80;55.70
71994;DHT22;59861;50.268;8.648;2023-03-30T14:04:15;15.80;55.60
71994;DHT22;59861;50.268;8.648;2023-03-30T14:06:43;15.80;55.70
71994;DHT22;59861;50.268;8.648;2023-03-30T14:09:12;15.80;55.60
71994;DHT22;59861;50.268;8.648;2023-03-30T14:11:47;15.80;56.20
71994;DHT22;59861;50.268;8.648;2023-03-30T14:14:24;15.80;55.70
71994;DHT22;59861;50.268;8.648;2023-03-30T14:16:47;15.80;55.70
71994;DHT22;59861;50.268;8.648;2023-03-30T14:21:50;15.80;55.80
71994;DHT22;59861;50.268;8.648;2023-03-30T14:24:19;15.80;55.90
71994;DHT22;59861;50.268;8.648;2023-03-30T14:26:46;15.80;55.70
71994;DHT22;59861;50.268;8.648;2023-03-30T14:29:16;15.80;55.70
71994;DHT22;59861;50.268;8.648;2023-03-30T14:31:43;15.80;55.90
71994;DHT22;59861;50.268;8.648;2023-03-30T14:36:54;15.80;56.10
71994;DHT22;59861;50.268;8.648;2023-03-30T14:39:22;15.80;56.10
71994;DHT22;59861;50.268;8.648;2023-03-30T14:41:49;15.80;56.10
71994;DHT22;59861;50.268;8.648;2023-03-30T14:44:18;15.80;56.70
71994;DHT22;59861;50.268;8.648;2023-03-30T14:46:49;15.80;56.00
71994;DHT22;59861;50.268;8.648;2023-03-30T14:49:23;15.90;56.00
71994;DHT22;59861;50.268;8.648;2023-03-30T14:51:51;15.90;56.00
71994;DHT22;59861;50.268;8.648;2023-03-30T14:54:19;15.90;56.00
71994;DHT22;59861;50.268;8.648;2023-03-30T14:56:49;15.90;56.10
71994;DHT22;59861;50.268;8.648;2023-03-30T14:59:14;16.00;56.00
71994;DHT22;59861;50.268;8.648;2023-03-30T15:01:43;16.00;55.90
71994;DHT22;59861;50.268;8.648;2023-03-30T15:04:13;16.00;55.90
71994;DHT22;59861;50.268;8.648;2023-03-30T15:06:39;16.00;55.80
71994;DHT22;59861;50.268;8.648;2023-03-30T15:09:08;16.00;55.80
71994;DHT22;59861;50.268;8.648;2023-03-30T15:11:34;16.10;55.80
71994;DHT22;59861;50.268;8.648;2023-03-30T15:14:05;16.10;55.80
71994;DHT22;59861;50.268;8.648;2023-03-30T15:16:32;16.10;55.80
71994;DHT22;59861;50.268;8.648;2023-03-30T15:19:05;16.10;55.80
71994;DHT22;59861;50.268;8.648;2023-03-30T15:21:29;16.10;55.80
71994;DHT22;59861;50.268;8.648;2023-03-30T15:23:57;16.10;55.80
71994;DHT22;59861;50.268;8.648;2023-03-30T15:26:26;16.10;55.90
71994;DHT22;59861;50.268;8.648;2023-03-30T15:28:55;16.10;55.80
71994;DHT22;59861;50.268;8.648;2023-03-30T15:31:21;16.20;55.80
71994;DHT22;59861;50.268;8.648;2023-03-30T15:33:52;16.20;55.90
71994;DHT22;59861;50.268;8.648;2023-03-30T15:36:23;16.20;55.80
71994;DHT22;59861;50.268;8.648;2023-03-30T15:38:56;16.20;55.90
71994;DHT22;59861;50.268;8.648;2023-03-30T15:41:42;16.20;55.80
71994;DHT22;59861;50.268;8.648;2023-03-30T15:46:20;16.20;56.00
71994;DHT22;59861;50.268;8.648;2023-03-30T15:48:48;16.20;56.00
71994;DHT22;59861;50.268;8.648;2023-03-30T15:51:25;16.20;56.10
71994;DHT22;59861;50.268;8.648;2023-03-30T15:54:00;16.30;56.00
71994;DHT22;59861;50.268;8.648;2023-03-30T15:58:55;16.30;55.90
71994;DHT22;59861;50.268;8.648;2023-03-30T16:01:22;16.40;56.00
71994;DHT22;59861;50.268;8.648;2023-03-30T16:03:55;16.20;57.40
71994;DHT22;59861;50.268;8.648;2023-03-30T16:06:22;16.10;57.50
71994;DHT22;59861;50.268;8.648;2023-03-30T16:08:48;16.20;58.00
71994;DHT22;59861;50.268;8.648;2023-03-30T16:11:15;16.30;58.10
71994;DHT22;59861;50.268;8.648;2023-03-30T16:13:46;16.40;58.20
71994;DHT22;59861;50.268;8.648;2023-03-30T16:16:13;16.50;58.20
71994;DHT22;59861;50.268;8.648;2023-03-30T16:18:42;16.60;58.00
71994;DHT22;59861;50.268;8.648;2023-03-30T16:21:09;16.60;57.70
71994;DHT22;59861;50.268;8.648;2023-03-30T16:23:36;16.70;58.00
71994;DHT22;59861;50.268;8.648;2023-03-30T16:26:03;16.70;58.10
71994;DHT22;59861;50.268;8.648;2023-03-30T16:28:30;16.80;58.00
71994;DHT22;59861;50.268;8.648;2023-03-30T16:30:57;16.90;58.50
71994;DHT22;59861;50.268;8.648;2023-03-30T16:33:25;17.10;58.30
71994;DHT22;59861;50.268;8.648;2023-03-30T16:35:51;17.00;58.00
71994;DHT22;59861;50.268;8.648;2023-03-30T16:38:18;17.00;58.10
71994;DHT22;59861;50.268;8.648;2023-03-30T16:40:52;16.90;58.50
71994;DHT22;59861;50.268;8.648;2023-03-30T16:43:20;17.00;58.60
71994;DHT22;59861;50.268;8.648;2023-03-30T16:45:46;17.00;58.40
71994;DHT22;59861;50.268;8.648;2023-03-30T16:48:13;17.10;58.60
71994;DHT22;59861;50.268;8.648;2023-03-30T16:50:41;17.10;58.50
71994;DHT22;59861;50.268;8.648;2023-03-30T16:53:08;17.10;58.70
71994;DHT22;59861;50.268;8.648;2023-03-30T16:55:36;17.10;58.70
71994;DHT22;59861;50.268;8.648;2023-03-30T16:58:04;17.10;58.70
71994;DHT22;59861;50.268;8.648;2023-03-30T17:00:33;17.10;59.40
71994;DHT22;59861;50.268;8.648;2023-03-30T17:03:00;17.10;59.30
71994;DHT22;59861;50.268;8.648;2023-03-30T17:05:26;17.10;59.60
71994;DHT22;59861;50.268;8.648;2023-03-30T17:07:54;17.10;59.50
71994;DHT22;59861;50.268;8.648;2023-03-30T17:10:23;17.10;59.50
71994;DHT22;59861;50.268;8.648;2023-03-30T17:12:50;17.10;59.50
71994;DHT22;59861;50.268;8.648;2023-03-30T17:15:18;17.00;59.40
71994;DHT22;59861;50.268;8.648;2023-03-30T17:17:45;17.00;59.50